Time;durP1;ratioP1;P1;durP2;ratioP2;P2;SDS_P1;SDS_P2;PMS_P1;PMS_P2;Temp;Humidity;BMP_temperature;BMP_pressure;BME280_temperature;BME280_humidity;BME280_pressure;Samples;Min_cycle;Max_cycle;Signal;HPM_P1;HPM_P2
2022/07/04 00:01:35;;;;;;;4.03;2.67;;;19.70;71.00;;;22.45;52.46;101768.44;5096718;28;20554;-65
2022/07/04 00:04:02;;;;;;;3.83;2.60;;;19.70;70.40;;;22.43;52.87;101765.19;5098234;28;20207;-64
2022/07/04 00:06:30;;;;;;;2.70;2.50;;;19.70;70.40;;;22.39;52.72;101766.69;5098282;28;20241;-62
2022/07/04 00:08:57;;;;;;;3.20;2.83;;;19.70;70.50;;;22.37;52.66;101765.28;5098018;28;20188;-65
2022/07/04 00:11:25;;;;;;;3.13;2.53;;;19.60;70.50;;;22.34;52.64;101771.91;5097497;28;20223;-64
2022/07/04 00:13:52;;;;;;;4.20;2.70;;;19.60;70.50;;;22.32;52.56;101768.63;5097618;28;20185;-64
2022/07/04 00:16:19;;;;;;;3.30;2.70;;;19.60;70.80;;;22.30;52.61;101769.91;5113331;28;20223;-64
2022/07/04 00:18:48;;;;;;;4.10;3.00;;;19.60;70.60;;;22.25;52.28;101770.56;5096810;28;20191;-64
2022/07/04 00:21:16;;;;;;;3.83;2.57;;;19.50;70.60;;;22.22;52.63;101768.34;5096708;28;20212;-64
2022/07/04 00:23:43;;;;;;;3.97;3.13;;;19.50;70.80;;;22.22;52.96;101762.97;5097999;28;20191;-64
2022/07/04 00:26:10;;;;;;;5.03;3.07;;;19.50;70.90;;;22.21;52.61;101766.69;5097935;28;20188;-64
2022/07/04 00:28:38;;;;;;;4.77;2.87;;;19.50;70.90;;;22.20;52.68;101770.44;5097135;28;20189;-64
2022/07/04 00:31:05;;;;;;;3.40;2.97;;;19.50;71.20;;;22.19;52.99;101768.78;5096669;28;20207;-62
2022/07/04 00:33:33;;;;;;;5.60;3.37;;;19.50;71.20;;;22.17;53.14;101770.88;5097217;28;20553;-64
2022/07/04 00:36:02;;;;;;;4.37;2.80;;;19.40;71.20;;;22.13;52.88;101769.72;5096527;28;20669;-64
2022/07/04 00:38:29;;;;;;;3.57;3.20;;;19.40;71.10;;;22.10;52.87;101764.78;5097358;28;20219;-65
2022/07/04 00:40:57;;;;;;;3.40;3.00;;;19.40;71.30;;;22.07;53.24;101765.22;5096807;28;20216;-65
2022/07/04 00:43:28;;;;;;;4.10;3.47;;;19.30;71.20;;;22.03;52.95;101759.50;5097020;28;20192;-65
2022/07/04 00:45:56;;;;;;;4.70;3.10;;;19.30;71.40;;;22.02;53.25;101754.34;5097678;28;20180;-65
2022/07/04 00:48:23;;;;;;;4.13;3.27;;;19.30;71.70;;;21.99;53.24;101757.47;5097078;28;20184;-64
2022/07/04 00:50:52;;;;;;;5.73;3.53;;;19.30;71.90;;;21.97;53.29;101759.56;5096707;28;20226;-65
2022/07/04 00:53:25;;;;;;;3.77;3.47;;;19.20;72.00;;;21.95;53.38;101759.78;5096696;28;20198;-64
2022/07/04 00:55:54;;;;;;;3.93;3.47;;;19.20;71.90;;;21.93;53.39;101750.34;5097072;28;20204;-64
2022/07/04 00:58:23;;;;;;;5.80;3.23;;;19.20;72.00;;;21.91;53.77;101760.47;5097341;28;20199;-64
2022/07/04 01:00:51;;;;;;;3.47;3.13;;;19.10;72.00;;;21.90;53.65;101753.47;5096945;28;20185;-65
2022/07/04 01:03:18;;;;;;;3.40;3.20;;;19.20;72.50;;;21.89;53.97;101757.19;5096754;28;20188;-64
2022/07/04 01:05:46;;;;;;;3.23;2.93;;;19.10;72.20;;;21.88;53.44;101755.53;5096942;28;20204;-64
2022/07/04 01:08:15;;;;;;;3.90;3.60;;;19.10;72.10;;;21.88;53.95;101750.19;5096731;28;20194;-64
2022/07/04 01:10:44;;;;;;;4.23;3.40;;;19.10;72.20;;;21.85;54.02;101753.31;5075048;28;20191;-64
2022/07/04 01:13:20;;;;;;;3.77;3.47;;;19.10;72.20;;;21.82;53.67;101751.84;5076759;28;20197;-65
2022/07/04 01:15:48;;;;;;;3.67;3.37;;;19.10;72.40;;;21.84;53.63;101748.97;5077205;28;20191;-64
2022/07/04 01:18:16;;;;;;;3.73;3.43;;;19.10;72.40;;;21.84;53.58;101759.69;5077233;28;20185;-64
2022/07/04 01:20:45;;;;;;;4.00;3.60;;;19.10;72.30;;;21.86;54.37;101763.00;5075643;28;20199;-64
2022/07/04 01:23:12;;;;;;;7.27;3.93;;;19.10;72.60;;;21.87;53.94;101756.59;5093198;28;20195;-64
2022/07/04 01:25:39;;;;;;;4.20;3.80;;;19.10;72.30;;;21.86;53.38;101760.31;5096269;28;20192;-64
2022/07/04 01:28:07;;;;;;;4.13;3.67;;;19.10;72.10;;;21.82;53.52;101761.78;5096529;28;20184;-64
2022/07/04 01:30:37;;;;;;;5.07;3.67;;;19.10;72.00;;;21.81;53.56;101770.84;5095931;28;20196;-64
2022/07/04 01:33:05;;;;;;;4.30;3.90;;;19.10;72.20;;;21.78;53.98;101766.75;5095893;28;20557;-64
2022/07/04 01:35:32;;;;;;;5.80;4.00;;;19.10;72.10;;;21.75;53.78;101771.75;5094675;28;20214;-64
2022/07/04 01:38:01;;;;;;;5.30;4.77;;;19.00;72.00;;;21.71;53.44;101765.19;5095366;28;20220;-65
2022/07/04 01:40:28;;;;;;;6.07;4.00;;;19.00;72.10;;;21.66;53.35;101773.06;5095733;28;20535;-65
2022/07/04 01:42:58;;;;;;;4.97;3.63;;;18.90;72.10;;;21.62;53.55;101766.53;5095666;28;20208;-65
2022/07/04 01:45:25;;;;;;;4.67;3.73;;;18.90;72.00;;;21.58;53.66;101764.28;5095814;28;20714;-65
2022/07/04 01:47:53;;;;;;;3.70;3.30;;;18.90;72.20;;;21.55;53.51;101777.31;5095515;28;20188;-65
2022/07/04 01:50:21;;;;;;;3.97;3.60;;;18.80;71.90;;;21.52;53.86;101773.22;5095617;28;20206;-64
2022/07/04 01:52:48;;;;;;;5.33;4.03;;;18.80;72.00;;;21.49;54.11;101773.66;5094172;28;20319;-65
2022/07/04 01:55:17;;;;;;;4.53;3.50;;;18.80;72.20;;;21.48;53.88;101766.66;5095860;28;20572;-65
2022/07/04 01:57:44;;;;;;;7.33;3.13;;;18.70;72.10;;;21.49;54.30;101773.66;5096056;28;20547;-64
2022/07/04 02:02:59;;;;;;;3.37;3.07;;;18.70;72.20;;;21.53;53.55;101774.88;5095725;28;20224;-65
2022/07/04 02:05:26;;;;;;;3.37;3.07;;;18.80;71.90;;;21.55;53.61;101772.78;5095687;28;20188;-64
2022/07/04 02:07:54;;;;;;;4.47;3.47;;;18.80;71.80;;;21.56;52.96;101779.75;5095354;28;20191;-64
2022/07/04 02:10:23;;;;;;;3.90;3.47;;;18.80;71.20;;;21.56;53.16;101779.75;5094725;28;20667;-64
2022/07/04 02:13:02;;;;;;;3.70;3.10;;;18.80;70.80;;;21.56;52.49;101773.59;5095236;28;20553;-64
2022/07/04 02:15:32;;;;;;;4.10;3.63;;;18.80;71.20;;;21.52;52.85;101767.84;5095507;28;20188;-64
2022/07/04 02:18:00;;;;;;;4.63;3.30;;;18.80;70.20;;;21.51;52.08;101770.78;5094290;28;20228;-65
2022/07/04 02:20:27;;;;;;;4.20;3.10;;;18.80;69.90;;;21.48;52.28;101766.66;5095279;28;20215;-64
2022/07/04 02:22:55;;;;;;;4.83;3.07;;;18.70;69.80;;;21.48;52.00;101772.03;5094611;28;20212;-65
2022/07/04 02:25:24;;;;;;;3.60;3.30;;;18.70;70.60;;;21.47;52.70;101770.38;5094223;28;20188;-64
2022/07/04 02:27:52;;;;;;;4.83;2.97;;;18.70;70.00;;;21.49;52.65;101770.97;5093811;28;20200;-64
2022/07/04 02:30:20;;;;;;;3.37;3.17;;;18.70;70.00;;;21.46;52.29;101763.41;5094873;28;20196;-64
2022/07/04 02:32:47;;;;;;;6.07;3.50;;;18.70;69.70;;;21.44;51.97;101760.09;5095014;28;20577;-64
2022/07/04 02:35:15;;;;;;;4.93;3.37;;;18.70;69.70;;;21.44;52.48;101773.50;5095261;28;20196;-64
2022/07/04 02:37:43;;;;;;;3.67;3.33;;;18.70;69.80;;;21.44;52.70;101765.44;5094735;28;20538;-65
2022/07/04 02:40:11;;;;;;;3.03;2.70;;;18.70;70.10;;;21.45;52.59;101761.75;5094467;28;20207;-65
2022/07/04 02:42:40;;;;;;;4.00;3.60;;;18.70;70.10;;;21.49;52.58;101760.25;5093480;28;20219;-65
2022/07/04 02:45:09;;;;;;;3.73;3.43;;;18.70;70.20;;;21.51;52.11;101760.06;5094363;28;20192;-64
2022/07/04 02:47:36;;;;;;;5.13;3.80;;;18.70;70.10;;;21.49;52.11;101762.09;5094943;28;20193;-65
2022/07/04 02:50:05;;;;;;;3.43;3.13;;;18.70;69.90;;;21.47;52.01;101758.84;5094298;28;20185;-64
2022/07/04 02:52:32;;;;;;;4.70;3.00;;;18.70;70.10;;;21.46;52.28;101752.69;5094003;28;20220;-65
2022/07/04 02:54:59;;;;;;;4.67;3.90;;;18.70;70.20;;;21.49;52.62;101757.56;5094633;28;20181;-65
2022/07/04 02:57:27;;;;;;;3.83;3.40;;;18.70;69.90;;;21.50;52.37;101769.94;5094474;28;20219;-64
2022/07/04 02:59:55;;;;;;;4.63;3.73;;;18.70;69.90;;;21.50;51.74;101771.78;5093941;28;20551;-64
2022/07/04 03:02:23;;;;;;;4.07;3.60;;;18.70;69.60;;;21.46;51.66;101768.75;5093697;28;20215;-64
2022/07/04 03:04:50;;;;;;;5.17;4.03;;;18.70;69.30;;;21.44;52.07;101770.00;5094157;28;20193;-64
2022/07/04 03:07:18;;;;;;;8.47;4.07;;;18.70;69.30;;;21.44;52.61;101762.78;5094489;28;20662;-63
2022/07/04 03:09:46;;;;;;;5.50;3.87;;;18.70;69.70;;;21.48;52.63;101763.16;5094469;28;20192;-64
2022/07/04 03:12:13;;;;;;;6.63;3.40;;;18.70;69.70;;;21.51;52.15;101766.19;5094388;28;20208;-64
2022/07/04 03:14:40;;;;;;;4.33;3.73;;;18.80;69.80;;;21.56;51.56;101763.69;5093606;28;20220;-64
2022/07/04 03:17:09;;;;;;;5.10;3.47;;;18.80;69.10;;;21.56;51.86;101769.03;5073931;28;20221;-64
2022/07/04 03:19:36;;;;;;;6.00;4.07;;;18.80;68.90;;;21.58;51.68;101777.69;5073736;28;20200;-64
2022/07/04 03:22:04;;;;;;;3.63;3.17;;;18.90;69.00;;;21.61;51.99;101775.63;5072205;28;20216;-64
2022/07/04 03:24:32;;;;;;;4.63;3.20;;;18.90;69.00;;;21.64;51.20;101780.50;5073959;28;20193;-64
2022/07/04 03:26:59;;;;;;;4.30;3.80;;;18.90;68.60;;;21.66;51.28;101784.63;5073721;28;20528;-64
2022/07/04 03:29:26;;;;;;;3.27;2.93;;;18.90;68.40;;;21.68;51.26;101790.56;5074057;28;20193;-63
2022/07/04 03:31:54;;;;;;;4.60;4.10;;;18.90;68.50;;;21.69;51.33;101783.34;5082957;28;20209;-64
2022/07/04 03:34:23;;;;;;;4.97;3.90;;;18.90;68.00;;;21.68;51.17;101781.72;5093270;28;20192;-64
2022/07/04 03:36:51;;;;;;;6.57;4.60;;;19.00;68.00;;;21.67;51.05;101791.63;5094210;28;20242;-65
2022/07/04 03:39:18;;;;;;;10.77;5.47;;;18.90;67.80;;;21.67;51.30;101790.81;5093822;28;20198;-64
2022/07/04 03:41:46;;;;;;;7.43;4.27;;;18.90;68.30;;;21.68;50.78;101795.13;5093318;28;20227;-64
2022/07/04 03:44:13;;;;;;;3.80;3.50;;;18.90;68.00;;;21.67;50.84;101806.88;5093579;28;20192;-64
2022/07/04 03:46:41;;;;;;;5.20;4.03;;;18.90;67.60;;;21.63;50.58;101798.47;5093613;28;20185;-64
2022/07/04 03:49:09;;;;;;;6.07;4.07;;;18.80;67.40;;;21.59;50.53;101799.94;5092620;28;20238;-64
2022/07/04 03:51:37;;;;;;;6.27;3.90;;;18.80;67.80;;;21.58;50.73;101812.50;5092528;28;20689;-65
2022/07/04 03:54:05;;;;;;;4.70;3.70;;;18.80;67.70;;;21.57;50.75;101807.38;5093928;28;20275;-64
2022/07/04 03:56:32;;;;;;;4.20;3.80;;;18.80;67.60;;;21.53;50.39;101817.75;5093664;28;20184;-64
2022/07/04 03:58:59;;;;;;;4.20;3.80;;;18.80;67.60;;;21.50;50.65;101817.34;5093224;28;20196;-64
2022/07/04 04:01:29;;;;;;;5.83;3.80;;;18.70;67.90;;;21.48;50.92;101814.91;5092826;28;20212;-64
2022/07/04 04:06:44;;;;;;;6.87;3.80;;;18.70;68.20;;;21.46;50.86;101821.50;5092920;28;20207;-64
2022/07/04 04:09:16;;;;;;;5.50;3.90;;;18.70;68.30;;;21.49;51.09;101829.91;5093350;28;20192;-64
2022/07/04 04:11:43;;;;;;;4.33;3.67;;;18.70;68.00;;;21.51;51.21;101841.22;5092833;28;20295;-64
2022/07/04 04:14:12;;;;;;;3.77;3.47;;;18.70;68.00;;;21.55;50.30;101837.09;5093413;28;20639;-64
2022/07/04 04:16:41;;;;;;;4.10;3.73;;;18.80;67.70;;;21.54;50.06;101829.25;5093303;28;20192;-64
2022/07/04 04:19:09;;;;;;;5.13;3.53;;;18.70;67.20;;;21.50;50.26;101839.63;5093023;28;20192;-64
2022/07/04 04:21:36;;;;;;;4.50;3.60;;;18.70;67.00;;;21.48;50.83;101839.00;5092469;28;20208;-64
2022/07/04 04:24:07;;;;;;;7.73;3.80;;;18.70;67.30;;;21.47;50.45;101849.94;5093187;28;20199;-64
2022/07/04 04:26:35;;;;;;;4.30;3.70;;;18.70;67.70;;;21.48;50.86;101849.72;5093714;28;20661;-64
2022/07/04 04:29:02;;;;;;;5.33;4.00;;;18.70;67.30;;;21.46;50.33;101848.31;5093049;28;20189;-64
2022/07/04 04:31:33;;;;;;;5.47;3.30;;;18.70;67.00;;;21.40;50.31;101850.00;5092735;28;20201;-65
2022/07/04 04:34:00;;;;;;;7.17;3.30;;;18.70;66.90;;;21.35;49.95;101852.50;5092519;28;20185;-65
2022/07/04 04:36:27;;;;;;;6.47;3.93;;;18.60;66.80;;;21.34;50.54;101850.06;5092968;28;20205;-63
2022/07/04 04:38:55;;;;;;;3.80;3.37;;;18.60;67.00;;;21.33;50.25;101849.22;5092504;28;20243;-64
2022/07/04 04:41:23;;;;;;;3.77;3.43;;;18.60;67.30;;;21.32;50.81;101858.28;5092468;28;20546;-64
2022/07/04 04:43:51;;;;;;;3.83;3.53;;;18.60;67.40;;;21.30;50.22;101860.38;5093184;28;20203;-64
2022/07/04 04:46:20;;;;;;;4.30;3.27;;;18.50;67.20;;;21.26;50.70;101853.81;5095658;28;20184;-64
2022/07/04 04:48:47;;;;;;;4.77;3.33;;;18.50;67.20;;;21.26;50.75;101859.16;5095289;28;20538;-64
2022/07/04 04:51:14;;;;;;;4.40;3.37;;;18.50;67.30;;;21.26;50.20;101858.34;5096296;28;20216;-65
2022/07/04 04:53:42;;;;;;;3.60;3.30;;;18.50;67.20;;;21.24;50.70;101855.88;5096428;28;20677;-65
2022/07/04 04:56:09;;;;;;;5.87;3.03;;;18.50;67.10;;;21.24;50.70;101863.09;5096272;28;20189;-64
2022/07/04 04:58:39;;;;;;;6.10;3.83;;;18.50;67.10;;;21.26;50.21;101863.69;5096632;28;20217;-64
2022/07/04 05:01:07;;;;;;;6.63;2.80;;;18.50;67.50;;;21.29;50.84;101864.09;5095409;28;20215;-64
2022/07/04 05:03:54;;;;;;;4.00;2.77;;;18.50;67.50;;;21.37;50.51;101863.81;5076327;28;20235;-67
2022/07/04 05:06:23;;;;;;;2.70;2.50;;;18.60;67.70;;;21.45;50.27;101863.56;5074778;28;20292;-63
2022/07/04 05:08:51;;;;;;;4.30;2.60;;;18.60;67.20;;;21.51;50.47;101867.22;5074580;28;20372;-65
2022/07/04 05:11:18;;;;;;;5.23;2.87;;;18.70;67.00;;;21.57;49.79;101867.16;5075266;28;20219;-63
2022/07/04 05:13:47;;;;;;;4.63;2.83;;;18.70;66.60;;;21.61;49.63;101862.19;5075529;28;20195;-65
2022/07/04 05:16:15;;;;;;;5.20;2.47;;;18.80;66.40;;;21.65;49.43;101857.22;5085333;28;20635;-64
2022/07/04 05:18:42;;;;;;;3.83;2.67;;;18.80;66.10;;;21.67;49.88;101855.97;5095735;28;20269;-64
2022/07/04 05:21:10;;;;;;;6.80;2.63;;;18.80;66.00;;;21.70;49.18;101854.69;5095354;28;20219;-64
2022/07/04 05:23:37;;;;;;;3.57;2.53;;;18.90;65.80;;;21.70;49.36;101854.69;5096296;28;20192;-65
2022/07/04 05:26:05;;;;;;;5.97;2.80;;;18.90;65.70;;;21.72;49.31;101855.28;5095960;28;20203;-65
2022/07/04 05:28:32;;;;;;;3.97;2.80;;;18.90;65.50;;;21.73;48.93;101854.25;5095619;28;20189;-64
2022/07/04 05:31:01;;;;;;;3.37;2.53;;;18.90;65.30;;;21.76;49.28;101859.16;5094748;28;20223;-65
2022/07/04 05:33:28;;;;;;;3.83;2.30;;;18.90;66.00;;;21.78;48.64;101852.53;5096434;28;20188;-65
2022/07/04 05:35:55;;;;;;;3.93;2.37;;;19.00;65.40;;;21.84;49.10;101857.06;5096016;28;20265;-65
2022/07/04 05:38:23;;;;;;;3.67;2.77;;;19.00;65.20;;;21.91;48.86;101857.00;5095179;28;20740;-65
2022/07/04 05:40:50;;;;;;;3.40;2.07;;;19.10;65.10;;;21.94;48.72;101861.94;5094716;28;20199;-64
2022/07/04 05:43:17;;;;;;;4.30;2.60;;;19.10;64.80;;;22.00;48.21;101855.66;5095154;28;20192;-64
2022/07/04 05:45:45;;;;;;;3.63;2.40;;;19.10;64.90;;;22.08;48.18;101858.06;5094611;28;20196;-65
2022/07/04 05:48:14;;;;;;;3.70;2.10;;;19.20;64.80;;;22.13;48.43;101859.00;5095347;28;20208;-64
2022/07/04 05:50:42;;;;;;;8.33;2.00;;;19.20;64.40;;;22.17;48.08;101862.09;5095043;28;20192;-64
2022/07/04 05:53:09;;;;;;;5.07;2.20;;;19.30;64.10;;;22.21;47.92;101857.91;5095744;28;20284;-65
2022/07/04 05:55:37;;;;;;;4.47;2.20;;;19.30;64.10;;;22.24;47.64;101857.47;5095026;28;20188;-66
2022/07/04 05:58:04;;;;;;;2.43;1.80;;;19.40;63.80;;;22.27;47.31;101857.03;5093633;28;20220;-65
2022/07/04 06:00:32;;;;;;;3.27;1.67;;;19.40;63.40;;;22.28;47.51;101864.00;5095071;28;20208;-64
2022/07/04 06:02:59;;;;;;;3.43;1.73;;;19.40;63.30;;;22.31;47.57;101857.38;5094664;28;20214;-65
2022/07/04 06:05:28;;;;;;;2.70;1.90;;;19.50;63.10;;;22.33;47.16;101861.47;5095451;28;20193;-65
2022/07/04 06:07:56;;;;;;;3.60;1.83;;;19.50;62.70;;;22.34;47.08;101863.13;5095017;28;20255;-64
2022/07/04 06:10:24;;;;;;;4.57;2.10;;;19.50;62.70;;;22.38;46.83;101875.03;5093619;28;20310;-64
2022/07/04 06:12:52;;;;;;;3.70;1.83;;;19.60;62.50;;;22.38;46.86;101866.16;5093331;28;20220;-65
2022/07/04 06:15:19;;;;;;;3.37;2.00;;;19.60;62.30;;;22.39;47.10;101871.34;5094484;28;20192;-66
2022/07/04 06:17:47;;;;;;;2.73;1.90;;;19.60;62.30;;;22.41;47.08;101877.28;5094649;28;20200;-65
2022/07/04 06:20:15;;;;;;;4.67;2.17;;;19.60;62.30;;;22.46;47.03;101885.50;5094356;28;20200;-65
2022/07/04 06:22:46;;;;;;;2.50;1.83;;;19.60;62.20;;;22.51;46.61;101866.81;5092755;28;20647;-69
2022/07/04 06:25:16;;;;;;;4.33;2.60;;;19.70;62.60;;;22.60;46.80;101873.56;5094636;28;20656;-64
2022/07/04 06:27:46;;;;;;;2.77;1.70;;;19.70;62.60;;;22.75;46.86;101870.47;5092575;28;20192;-64
2022/07/04 06:30:15;;;;;;;5.00;2.50;;;19.80;62.60;;;22.86;46.10;101878.59;5093029;28;20200;-64
2022/07/04 06:32:48;;;;;;;4.97;1.30;;;19.90;62.10;;;22.88;45.56;101876.50;5093796;28;20216;-65
2022/07/04 06:38:07;;;;;;;2.43;1.50;;;20.10;60.70;;;22.95;45.42;101865.66;5094009;28;20211;-65
2022/07/04 06:40:37;;;;;;;5.43;1.80;;;20.10;60.30;;;23.00;44.99;101862.28;5093647;28;20248;-64
2022/07/04 06:43:05;;;;;;;2.03;1.30;;;20.20;60.00;;;23.01;45.07;101863.94;5094051;28;20681;-65
2022/07/04 06:45:33;;;;;;;3.97;1.20;;;20.20;59.60;;;23.05;44.76;101867.81;5093917;28;20189;-64
2022/07/04 06:48:01;;;;;;;1.73;1.10;;;20.20;59.20;;;23.11;44.66;101864.19;5094163;28;20202;-64
2022/07/04 06:50:32;;;;;;;5.27;2.27;;;20.30;59.20;;;23.18;44.85;101865.72;5093564;28;20650;-64
2022/07/04 06:53:10;;;;;;;2.67;1.50;;;20.30;59.20;;;23.26;44.24;101861.91;5094297;28;20181;-64
2022/07/04 06:55:39;;;;;;;2.47;1.40;;;20.40;59.10;;;23.32;44.20;101864.47;5092801;27;20201;-64
2022/07/04 06:58:08;;;;;;;1.53;1.30;;;20.40;59.10;;;23.44;44.19;101869.91;5084108;28;20231;-64
2022/07/04 07:00:36;;;;;;;2.57;1.30;;;20.60;59.20;;;23.54;43.82;101862.91;5081021;28;20193;-65
2022/07/04 07:03:04;;;;;;;4.50;1.40;;;20.60;58.50;;;23.59;43.24;101851.47;5081372;28;20275;-64
2022/07/04 07:05:32;;;;;;;2.53;1.30;;;20.70;57.90;;;23.63;42.77;101858.00;5081379;28;20196;-65
2022/07/04 07:08:21;;;;;;;1.43;1.20;;;20.70;57.00;;;23.67;42.91;101869.13;5080853;28;21124;-64
2022/07/04 07:10:49;;;;;;;2.20;1.37;;;20.80;56.90;;;23.73;42.69;101866.31;5079414;28;20204;-63
2022/07/04 07:13:16;;;;;;;3.77;1.30;;;20.80;56.70;;;23.80;42.43;101864.31;5082294;28;20275;-64
2022/07/04 07:15:44;;;;;;;2.93;1.30;;;20.90;56.90;;;23.88;42.23;101866.66;5080280;28;20215;-64
2022/07/04 07:18:12;;;;;;;1.37;1.27;;;21.00;56.30;;;23.95;41.97;101861.97;5080770;28;20540;-64
2022/07/04 07:20:40;;;;;;;2.93;1.37;;;21.00;56.50;;;23.94;41.56;101870.28;5081009;28;20283;-65
2022/07/04 07:23:07;;;;;;;1.03;0.80;;;21.10;56.00;;;24.05;41.83;101867.59;5081212;28;20201;-65
2022/07/04 07:25:36;;;;;;;1.77;1.00;;;21.20;56.00;;;24.13;41.06;101866.44;5080821;28;20659;-64
2022/07/04 07:28:04;;;;;;;1.57;1.00;;;21.30;55.00;;;24.17;40.90;101862.22;5080943;28;20235;-62
2022/07/04 07:30:31;;;;;;;3.43;1.30;;;21.30;55.20;;;24.23;41.17;101864.78;5080830;28;20211;-62
2022/07/04 07:32:59;;;;;;;5.83;1.90;;;21.30;55.20;;;24.33;40.26;101855.28;5080534;28;20220;-64
2022/07/04 07:35:26;;;;;;;3.30;1.07;;;21.40;54.30;;;24.39;40.62;101862.41;5081867;28;20269;-64
2022/07/04 07:37:54;;;;;;;2.93;1.10;;;21.50;54.20;;;24.43;40.21;101868.94;5079757;28;20902;-63
2022/07/04 07:40:22;;;;;;;2.97;1.23;;;21.50;54.00;;;24.46;40.16;101868.47;5081034;28;20551;-64
2022/07/04 07:42:50;;;;;;;4.10;1.10;;;21.60;54.00;;;24.50;39.92;101864.25;5081381;28;20586;-64
2022/07/04 07:45:18;;;;;;;1.80;1.13;;;21.60;53.70;;;24.57;39.34;101878.41;5082359;28;20203;-64
2022/07/04 07:47:46;;;;;;;1.43;1.00;;;21.70;53.10;;;24.64;39.21;101876.38;5081499;27;20227;-64
2022/07/04 07:50:13;;;;;;;2.13;1.20;;;21.70;53.20;;;24.71;39.67;101871.66;5082751;28;20197;-63
2022/07/04 07:52:40;;;;;;;3.10;1.20;;;21.80;53.30;;;24.78;39.29;101877.75;5081929;28;20220;-64
2022/07/04 07:55:08;;;;;;;2.13;1.20;;;21.90;52.80;;;24.78;39.02;101869.69;5082689;28;20219;-64
2022/07/04 07:57:36;;;;;;;1.57;1.00;;;21.90;52.60;;;24.80;39.69;101872.94;5081907;28;20218;-63
2022/07/04 08:00:07;;;;;;;1.07;0.90;;;22.00;52.80;;;24.85;39.73;101867.66;5062920;28;20232;-63
2022/07/04 08:05:21;;;;;;;1.73;1.10;;;22.10;53.50;;;24.97;39.32;101876.50;5081027;28;20246;-64
2022/07/04 08:07:48;;;;;;;3.33;2.17;;;22.10;53.50;;;25.09;39.71;101869.19;5082262;28;20205;-64
2022/07/04 08:10:16;;;;;;;2.30;1.40;;;22.20;53.80;;;25.23;39.24;101864.28;5081047;28;20200;-64
2022/07/04 08:12:43;;;;;;;2.60;1.40;;;22.30;53.30;;;25.33;39.20;101869.88;5080433;28;20234;-64
2022/07/04 08:15:12;;;;;;;1.90;1.20;;;22.40;52.40;;;25.41;38.49;101866.78;5080930;28;20697;-64
2022/07/04 08:17:40;;;;;;;1.07;0.97;;;22.40;52.00;;;25.51;38.11;101859.69;5081033;28;20226;-64
2022/07/04 08:20:09;;;;;;;4.03;1.37;;;22.50;52.00;;;25.96;37.64;101858.75;5079601;28;20212;-64
2022/07/04 08:22:36;;;;;;;2.47;1.27;;;22.70;51.40;;;26.45;36.51;101863.19;5084577;28;20216;-64
2022/07/04 08:25:04;;;;;;;1.53;0.93;;;22.90;51.00;;;27.29;35.88;101855.44;5084890;28;20326;-64
2022/07/04 08:27:32;;;;;;;3.13;0.93;;;23.30;51.00;;;28.45;34.54;101850.75;5085263;28;20211;-64
2022/07/04 08:30:00;;;;;;;2.00;1.20;;;23.80;50.90;;;29.18;32.81;101844.97;5085143;28;20192;-63
2022/07/04 08:32:29;;;;;;;1.43;1.03;;;24.30;49.20;;;29.97;31.83;101847.88;5085385;28;20212;-65
2022/07/04 08:34:56;;;;;;;2.50;1.30;;;24.90;48.30;;;31.04;29.85;101837.28;5084804;28;20200;-64
2022/07/04 08:37:24;;;;;;;1.57;1.23;;;25.60;46.80;;;31.85;29.34;101845.53;5085040;28;20192;-64
2022/07/04 08:39:51;;;;;;;2.70;1.10;;;26.20;46.00;;;32.47;28.57;101842.59;5084984;28;20220;-63
2022/07/04 08:42:21;;;;;;;2.10;1.40;;;26.80;42.90;;;33.23;27.29;101845.03;5084208;28;20220;-64
2022/07/04 08:44:54;;;;;;;6.87;5.43;;;27.40;42.40;;;34.25;25.94;101833.81;5083356;28;21754;-63
2022/07/04 08:47:24;;;;;;;1.23;1.13;;;28.00;41.30;;;34.91;25.03;101837.78;5079329;28;20204;-63
2022/07/04 08:50:10;;;;;;;1.83;1.47;;;28.60;38.70;;;35.60;23.46;101839.06;5080443;28;20205;-65
2022/07/04 08:52:41;;;;;;;1.30;1.17;;;29.10;37.00;;;36.33;23.32;101838.34;5080505;28;20971;-62
2022/07/04 09:00:46;;;;;;;2.17;1.40;;;30.30;33.50;;;35.02;23.31;101842.72;5079870;28;20227;-64
2022/07/04 09:03:13;;;;;;;2.17;1.70;;;30.20;32.70;;;34.97;23.78;101845.56;5079310;28;20192;-63
2022/07/04 09:05:42;;;;;;;3.13;1.40;;;30.20;33.50;;;34.53;23.74;101851.81;5080920;28;20201;-63
2022/07/04 09:08:09;;;;;;;2.43;1.23;;;30.10;32.70;;;33.87;24.35;101851.53;5080732;28;20204;-64
2022/07/04 09:10:38;;;;;;;1.73;1.27;;;29.80;33.10;;;34.28;24.18;101843.34;5079371;28;20199;-63
2022/07/04 09:13:10;;;;;;;2.57;1.70;;;29.70;33.90;;;35.19;23.49;101831.09;5080920;28;20220;-62
2022/07/04 09:15:41;;;;;;;3.37;1.70;;;29.80;34.50;;;35.40;22.75;101834.91;5078339;28;20220;-62
2022/07/04 09:18:24;;;;;;;1.60;1.30;;;30.00;34.00;;;35.14;23.27;101839.41;5080211;28;20205;-65
2022/07/04 09:20:54;;;;;;;2.43;1.53;;;30.10;32.70;;;34.45;23.54;101841.56;5080733;28;20227;-63
2022/07/04 09:23:26;;;;;;;2.30;1.60;;;30.10;32.60;;;33.97;24.41;101834.94;5080720;28;20279;-64
2022/07/04 09:26:13;;;;;;;2.37;1.70;;;29.80;33.30;;;34.26;24.34;101835.41;5080196;28;20643;-64
2022/07/04 09:28:43;;;;;;;2.43;1.50;;;29.70;34.20;;;34.25;23.83;101833.00;5080402;28;20258;-64
2022/07/04 09:31:21;;;;;;;3.97;1.80;;;29.70;33.70;;;34.13;24.37;101836.25;5077658;28;20647;-63
2022/07/04 09:33:52;;;;;;;3.17;1.90;;;29.60;33.70;;;34.02;24.45;101845.72;5078497;28;20287;-63
2022/07/04 09:36:24;;;;;;;2.60;1.93;;;29.50;33.90;;;34.35;23.41;101836.31;5077633;28;20192;-64
2022/07/04 09:39:06;;;;;;;2.07;1.40;;;29.50;34.00;;;34.20;23.65;101839.38;5094122;28;20312;-63
2022/07/04 09:41:51;;;;;;;2.07;1.67;;;29.60;33.40;;;34.48;23.89;101846.41;5079191;28;20229;-64
2022/07/04 09:44:20;;;;;;;2.13;1.37;;;29.60;33.60;;;34.80;23.18;101839.16;5079157;28;20275;-63
2022/07/04 09:46:48;;;;;;;1.43;1.37;;;29.60;33.50;;;35.21;23.34;101828.84;5079257;28;20565;-64
2022/07/04 09:49:16;;;;;;;2.47;1.53;;;29.80;33.80;;;34.90;23.82;101838.94;5080149;28;20903;-64
2022/07/04 09:51:48;;;;;;;1.67;1.43;;;30.00;33.50;;;34.57;23.68;101836.38;5079516;28;20557;-64
2022/07/04 09:54:25;;;;;;;2.00;1.30;;;30.00;33.00;;;34.10;23.65;101836.03;5080192;28;20203;-64
2022/07/04 09:56:55;;;;;;;1.47;1.10;;;29.80;32.50;;;33.46;24.21;101836.97;5078866;28;20279;-64
2022/07/04 09:59:27;;;;;;;1.67;1.40;;;29.60;32.50;;;32.92;24.31;101843.88;5076913;28;20595;-63
2022/07/04 10:02:08;;;;;;;1.90;1.30;;;29.30;32.30;;;33.68;23.88;101828.94;5077219;28;20209;-63
2022/07/04 10:04:44;;;;;;;2.27;1.60;;;29.20;33.30;;;34.57;23.51;101825.44;5079177;28;20200;-63
2022/07/04 10:07:33;;;;;;;4.10;2.17;;;29.40;33.90;;;36.02;22.47;101840.41;5078399;28;20192;-64
2022/07/04 10:10:01;;;;;;;1.73;1.30;;;29.70;33.30;;;36.45;21.26;101830.28;5079164;28;20207;-63
2022/07/04 10:12:29;;;;;;;2.33;1.33;;;30.10;32.60;;;36.12;21.23;101832.66;5078646;28;20270;-63
2022/07/04 10:14:57;;;;;;;2.87;1.50;;;30.40;31.60;;;35.39;22.05;101836.03;5080181;28;20208;-63
2022/07/04 10:17:24;;;;;;;3.77;1.63;;;30.50;31.20;;;34.50;22.61;101835.97;5078702;28;20227;-62
2022/07/04 10:19:54;;;;;;;1.70;1.50;;;30.30;31.10;;;33.57;23.60;101830.25;5079165;28;20953;-63
2022/07/04 10:22:24;;;;;;;3.57;1.23;;;30.00;31.10;;;32.86;24.43;101830.59;5078761;28;20524;-63
2022/07/04 10:24:54;;;;;;;2.70;1.60;;;29.60;32.60;;;32.36;25.49;101823.91;5077942;28;20196;-63
2022/07/04 10:27:21;;;;;;;2.47;1.60;;;29.20;32.70;;;32.83;25.25;101834.72;5094320;28;20212;-65
2022/07/04 10:29:50;;;;;;;2.43;1.60;;;29.00;33.60;;;33.99;23.88;101824.50;5079710;28;20226;-64
2022/07/04 10:32:18;;;;;;;6.27;2.03;;;29.00;34.20;;;35.06;23.18;101823.75;5077798;28;21999;-63
2022/07/04 10:34:46;;;;;;;5.23;1.57;;;29.20;34.40;;;35.47;22.01;101818.81;5076288;28;20208;-64
2022/07/04 10:37:13;;;;;;;2.10;1.67;;;29.50;33.30;;;35.04;22.81;101812.31;5077183;28;20204;-64